createdAt,value
2023-04-02T00:01:35.964Z,74736.72
2023-04-02T00:11:40.541Z,74752.91
2023-04-02T00:21:45.403Z,74754.94
2023-04-02T00:31:55.827Z,74775.16
2023-04-02T00:42:06.652Z,74775.16
2023-04-02T00:52:27.125Z,74789.31
2023-04-02T01:02:41.091Z,74791.34
2023-04-02T01:12:51.965Z,74785.28
2023-04-02T01:23:00.684Z,74805.50
2023-04-02T01:33:08.724Z,74817.66
2023-04-02T01:43:26.864Z,74839.91
2023-04-02T01:53:31.239Z,74874.31
2023-04-02T02:03:35.655Z,74876.31
2023-04-02T02:13:53.911Z,74886.44
2023-04-02T02:24:02.064Z,74932.97
2023-04-02T02:34:21.908Z,74947.16
2023-04-02T02:44:36.198Z,74961.31
2023-04-02T02:54:51.600Z,75003.81
2023-04-02T03:05:03.154Z,74991.66
2023-04-02T03:15:14.112Z,74987.63
2023-04-02T03:25:25.810Z,75001.78
2023-04-02T03:35:44.540Z,75001.78
2023-04-02T03:45:53.593Z,74977.50
2023-04-02T03:55:59.258Z,75017.97
2023-04-02T04:06:15.901Z,75050.34
2023-04-02T04:16:30.490Z,75086.75
2023-04-02T04:26:40.425Z,75092.84
2023-04-02T04:36:54.701Z,75121.16
2023-04-02T04:47:08.695Z,75151.50
2023-04-02T04:57:24.575Z,75161.63
2023-04-02T05:07:36.803Z,75189.97
2023-04-02T05:18:17.845Z,75204.13
2023-04-02T05:28:49.115Z,75204.13
2023-04-02T05:38:53.056Z,75232.47
2023-04-02T05:49:12.358Z,75254.72
2023-04-02T05:59:29.873Z,75287.09
2023-04-02T06:09:42.424Z,75317.44
2023-04-02T06:19:50.752Z,75305.31
2023-04-02T06:29:57.726Z,75341.72
2023-04-02T06:40:03.781Z,75394.34
2023-04-02T06:50:33.819Z,75394.34
2023-04-02T07:00:45.076Z,75402.44
2023-04-02T07:10:52.572Z,75404.47
2023-04-02T07:20:55.547Z,75434.81
2023-04-02T07:31:01.550Z,75505.66
2023-04-02T07:41:07.264Z,75513.75
2023-04-02T07:51:30.427Z,75548.13
2023-04-02T08:01:35.776Z,75558.25
2023-04-02T08:11:47.923Z,75525.88
2023-04-02T08:21:53.002Z,75495.53
2023-04-02T08:31:55.167Z,75475.28
2023-04-02T08:42:03.932Z,75503.63
2023-04-02T08:52:23.729Z,75523.84
2023-04-02T09:02:43.757Z,75540.03
2023-04-02T09:12:51.842Z,75542.06
2023-04-02T09:22:57.220Z,75536.00
2023-04-02T09:33:07.896Z,75554.22
2023-04-02T09:43:16.443Z,75548.13
2023-04-02T09:53:39.063Z,75548.13
2023-04-02T10:03:43.131Z,75548.13
2023-04-02T10:14:04.076Z,75548.13
2023-04-02T10:24:20.265Z,75564.34
2023-04-02T10:34:36.483Z,75586.59
2023-04-02T10:44:56.929Z,75625.03
2023-04-02T10:55:05.469Z,75653.38
2023-04-02T11:05:18.457Z,75673.63
2023-04-02T11:15:30.427Z,75661.47
2023-04-02T11:25:36.507Z,75659.44
2023-04-02T11:35:41.423Z,75677.66
2023-04-02T11:45:53.723Z,75671.59
2023-04-02T11:56:16.976Z,75697.91
2023-04-02T12:07:00.217Z,75718.13
2023-04-02T12:17:16.698Z,75732.31
2023-04-02T12:27:24.707Z,75734.31
2023-04-02T12:37:29.972Z,75782.91
2023-04-02T12:47:34.410Z,75795.03
2023-04-02T12:57:41.813Z,75780.88
2023-04-02T13:07:47.747Z,75770.75
2023-04-02T13:18:21.651Z,75770.75
2023-04-02T13:28:26.232Z,75778.84
2023-04-02T13:38:35.280Z,75811.22
2023-04-02T13:48:40.960Z,75829.44
2023-04-02T13:58:48.835Z,75843.63
2023-04-02T14:09:25.857Z,75884.09
2023-04-02T14:19:59.381Z,75912.44
2023-04-02T14:30:13.541Z,75948.84
2023-04-02T14:40:43.046Z,75961.00
2023-04-02T14:50:49.247Z,75961.00
2023-04-02T15:00:57.523Z,75993.38
2023-04-02T15:11:21.861Z,76041.97
2023-04-02T15:21:55.912Z,76082.44
2023-04-02T15:32:25.261Z,76118.88
2023-04-02T15:42:38.452Z,76143.16
2023-04-02T15:52:52.455Z,76143.16
2023-04-02T16:03:06.772Z,76151.25
2023-04-02T16:13:35.533Z,76163.41
2023-04-02T16:23:43.075Z,76187.69
2023-04-02T16:34:00.933Z,76179.59
2023-04-02T16:44:29.864Z,76199.81
2023-04-02T16:54:49.206Z,76220.06
2023-04-02T17:05:14.683Z,76240.31
2023-04-02T17:15:29.233Z,76228.16
2023-04-02T17:25:34.820Z,76224.13
2023-04-02T17:35:54.674Z,76214.00
2023-04-02T17:46:02.744Z,76224.13
2023-04-02T17:56:30.129Z,76220.06
2023-04-02T18:06:41.691Z,76224.13
2023-04-02T18:16:49.516Z,76214.00
2023-04-02T18:27:28.456Z,76224.13
2023-04-02T18:37:45.780Z,76224.13
2023-04-02T18:47:59.686Z,76234.25
2023-04-02T18:58:07.414Z,76228.16
2023-04-02T19:08:37.500Z,76228.16
2023-04-02T19:19:10.260Z,76209.94
2023-04-02T19:29:37.276Z,76197.81
2023-04-02T19:40:11.908Z,76195.78
2023-04-02T19:50:14.138Z,76165.41
2023-04-02T20:00:19.032Z,76175.53
2023-04-02T20:10:24.273Z,76179.59
2023-04-02T20:20:32.554Z,76169.47
2023-04-02T20:30:35.856Z,76191.72
2023-04-02T20:40:41.961Z,76181.63
2023-04-02T20:50:49.512Z,76207.94
2023-04-02T21:01:12.171Z,76205.91
2023-04-02T21:11:18.376Z,76216.03
2023-04-02T21:21:25.836Z,76236.25
2023-04-02T21:31:35.939Z,76236.25
2023-04-02T21:41:50.315Z,76256.50
2023-04-02T21:51:56.156Z,76240.31
2023-04-02T22:01:59.165Z,76256.50
2023-04-02T22:12:02.530Z,76292.94
2023-04-02T22:22:06.766Z,76317.22
2023-04-02T22:32:08.926Z,76333.41
2023-04-02T22:42:13.564Z,76373.91
2023-04-02T22:52:16.877Z,76394.16
2023-04-02T23:02:19.472Z,76412.34
2023-04-02T23:12:21.845Z,76426.53
2023-04-02T23:22:26.140Z,76450.81
2023-04-02T23:32:33.733Z,76467.00
2023-04-02T23:42:35.901Z,76497.38
2023-04-02T23:52:42.605Z,76539.88
